KDPG/DPG METAR and TAF weather

Enter ICAO airport designator
Station Type Date Time Source
KDPG METAR 2019/10/17 22:55 UTC NOAA

KDPG 172255Z 21011G16KT 25SM SCT085 BKN130 BKN180 23/M03 A2960 RMK BLDU DSNT W VIRGA DSNT W AND SE SHRA DSNT N SLP977 T02301031 LAST


Station Type Date Time Source
KDPG Decoded METAR 2019/10/17 22:55 UTC NOAA

Dugway Proving Grounds, UT, United States (KDPG) 40-10N 112-56W 1325M
Oct 17, 2019 - 06:55 PM EDT / 2019.10.17 2255 UTC
Wind: from the SSW (210 degrees) at 13 MPH (11 KT) gusting to 18 MPH (16 KT):0
Visibility: 25 mile(s):0
Sky conditions: mostly cloudy
Temperature: 73.4 F (23.0 C)
Dew Point: 26.4 F (-3.1 C)
Relative Humidity: 17%
Pressure (altimeter): 29.6 in. Hg (1002 hPa)
ob: KDPG 172255Z 21011G16KT 25SM SCT085 BKN130 BKN180 23/M03 A2960 RMK BLDU DSNT W VIRGA DSNT W AND SE SHRA DSNT N SLP977 T02301031 LAST
cycle: 23

Station Type Date Time Source
KDPG TAF UTC NOAA

Error!

Example: see airport list